Αρχική σελίδα
METAR-TAF:

METAR-TAF

Αεροδρόμια :

Barrancabermeja, Κολομβία

γεωγραφικό πλάτος: 07-01N, γεωγραφικό μήκος: 073-48W, υψόμετρο: 126 μ

Παρών καιρός

Η αναφορά έγινε 2 ώρες και 42 λεπτά πριν, στις 23:00 UTC
Άνεμος 2 kt από μεταβλητές κατευθύνσεις
Θερμοκρασία 34°C
Υγρασία 53%
Πίεση 1005 hPa
Ορατότητα 10 χλμ και άνω
Διάσπαρτα νέφη σε ύψος 2000 πόδια

METAR: SKEJ 222300Z VRB02KT 9999 SCT020 34/23 Q1005

Χρόνος: 20:42 (01:42 UTC)


TAF: λείπει

Μετεωρολογικές αναφορές και προγνώσεις για περισσότερα από 4000 αεροδρόμια (δελτία METAR και TAF).

Οι διαθέσιμοι σταθμοί απεικονίζονται στο χάρτη με κίτρινες και κόκκινες κουκκίδες.

Μετακινήστε το ποντίκι πάνω από τις κουκκίδες για να δείτε το όνομα του σταθμού.

Στη συνέχεια, κάντε κλικ για να δείτε τις μετεωρολογικές αναφορές και τις προγνώσεις καιρού.

Για να αλλάξετε το χάρτη: κάντε κλικ στα πράσινα κουμπιά με τον μαύρο σταυρό για να ζουμάρετε, στο πράσινο κουμπί με την παύλα για να αφαιρέσετε το ζουμ ή στα πράσινα βέλη για να αντιπαραβάλλετε χάρτες.


METAR-TAF: